Time;durP1;ratioP1;P1;durP2;ratioP2;P2;SDS_P1;SDS_P2;PMS_P1;PMS_P2;Temp;Humidity;BMP_temperature;BMP_pressure;BME280_temperature;BME280_humidity;BME280_pressure;Samples;Min_cycle;Max_cycle;Signal;HPM_P1;HPM_P2
2021/04/30 00:01:50;;;;;;;4.82;1.95;;;14.30;99.90;;;;;;5018329;28;20783;-63
2021/04/30 00:04:17;;;;;;;5.70;2.78;;;14.20;99.90;;;;;;5026222;28;20220;-63
2021/04/30 00:06:45;;;;;;;6.82;2.60;;;14.20;99.90;;;;;;5022058;28;20129;-63
2021/04/30 00:09:12;;;;;;;5.78;2.45;;;14.10;99.90;;;;;;5032143;28;20405;-63
2021/04/30 00:11:38;;;;;;;5.38;2.38;;;14.00;99.90;;;;;;5028893;28;20084;-63
2021/04/30 00:14:05;;;;;;;5.38;2.65;;;14.10;99.90;;;;;;5024144;28;20431;-63
2021/04/30 00:16:31;;;;;;;9.43;2.92;;;14.10;99.90;;;;;;5029555;28;20059;-63
2021/04/30 00:18:58;;;;;;;6.22;2.90;;;14.10;99.90;;;;;;5029697;28;20052;-63
2021/04/30 00:21:24;;;;;;;5.53;2.67;;;14.00;99.90;;;;;;5032539;28;20041;-63
2021/04/30 00:23:56;;;;;;;6.30;2.47;;;14.00;99.90;;;;;;5031946;28;20362;-63
2021/04/30 00:26:22;;;;;;;6.82;2.95;;;14.00;99.90;;;;;;5028974;28;20524;-63
2021/04/30 00:28:49;;;;;;;7.65;2.88;;;14.00;99.90;;;;;;5028413;28;20044;-63
2021/04/30 00:31:18;;;;;;;5.57;2.35;;;14.00;99.90;;;;;;5029980;28;20420;-63
2021/04/30 00:33:45;;;;;;;5.53;2.80;;;14.00;99.90;;;;;;5018491;28;20844;-63
2021/04/30 00:36:11;;;;;;;6.07;2.65;;;14.00;99.90;;;;;;5024272;28;20045;-63
2021/04/30 00:38:38;;;;;;;4.28;2.53;;;13.90;99.90;;;;;;5028172;28;20723;-63
2021/04/30 00:41:04;;;;;;;6.47;2.90;;;14.00;99.90;;;;;;5023590;28;20049;-63
2021/04/30 00:43:31;;;;;;;8.73;2.58;;;13.90;99.90;;;;;;5032833;28;20060;-63
2021/04/30 00:45:58;;;;;;;6.13;2.50;;;13.90;99.90;;;;;;5037762;28;20046;-63
2021/04/30 00:48:24;;;;;;;5.60;2.70;;;13.90;99.90;;;;;;5024785;28;20049;-63
2021/04/30 00:50:52;;;;;;;4.68;2.00;;;13.90;99.90;;;;;;5011680;28;20488;-63
2021/04/30 00:53:19;;;;;;;6.32;2.83;;;13.90;99.90;;;;;;5028992;28;20510;-63
2021/04/30 00:55:45;;;;;;;5.45;2.42;;;14.00;99.90;;;;;;5025568;28;20049;-63
2021/04/30 00:58:12;;;;;;;7.32;2.92;;;14.00;99.90;;;;;;5021103;28;20519;-63
2021/04/30 01:00:38;;;;;;;5.65;2.67;;;14.00;99.90;;;;;;5043868;28;20056;-63
2021/04/30 01:03:09;;;;;;;5.38;2.35;;;13.90;99.90;;;;;;5023247;28;20042;-63
2021/04/30 01:05:37;;;;;;;3.58;1.90;;;14.00;99.90;;;;;;5025856;28;20049;-63
2021/04/30 01:08:05;;;;;;;5.07;2.58;;;14.00;99.90;;;;;;5033439;28;20092;-63
2021/04/30 01:10:33;;;;;;;6.72;3.05;;;13.90;99.90;;;;;;5027946;28;20052;-63
2021/04/30 01:13:01;;;;;;;7.68;3.72;;;13.90;99.90;;;;;;5018581;28;20053;-63
2021/04/30 01:15:27;;;;;;;6.30;2.42;;;13.90;99.90;;;;;;5035294;28;20566;-63
2021/04/30 01:17:54;;;;;;;4.15;2.30;;;13.90;99.90;;;;;;5029363;28;20120;-63
2021/04/30 01:20:22;;;;;;;6.85;2.13;;;13.80;99.90;;;;;;5020114;28;20052;-63
2021/04/30 01:22:51;;;;;;;6.38;2.55;;;13.80;99.90;;;;;;5025908;28;20061;-63
2021/04/30 01:25:22;;;;;;;4.15;2.03;;;13.80;99.90;;;;;;5024579;28;20034;-63
2021/04/30 01:27:50;;;;;;;5.03;1.80;;;13.80;99.90;;;;;;5028816;28;20045;-63
2021/04/30 01:30:26;;;;;;;3.90;2.10;;;13.80;99.90;;;;;;5024288;28;20037;-63
2021/04/30 01:32:53;;;;;;;5.40;2.55;;;13.80;99.90;;;;;;5019877;28;20068;-63
2021/04/30 01:35:29;;;;;;;4.53;2.28;;;13.80;99.90;;;;;;5028709;28;20419;-63
2021/04/30 01:37:57;;;;;;;6.82;2.45;;;13.80;99.90;;;;;;5030296;28;20041;-63
2021/04/30 01:40:29;;;;;;;6.57;2.13;;;13.70;99.90;;;;;;5008247;28;20084;-63
2021/04/30 01:42:56;;;;;;;6.43;2.47;;;13.80;99.90;;;;;;5039483;28;20053;-63
2021/04/30 01:45:22;;;;;;;5.53;2.30;;;13.80;99.90;;;;;;5030122;28;20033;-63
2021/04/30 01:47:49;;;;;;;6.65;2.60;;;13.80;99.90;;;;;;5034749;28;20030;-63
2021/04/30 01:50:15;;;;;;;6.00;1.95;;;13.80;99.90;;;;;;5031245;28;20586;-63
2021/04/30 01:52:42;;;;;;;6.72;2.55;;;13.80;99.90;;;;;;5033130;28;20511;-63
2021/04/30 01:55:09;;;;;;;5.75;2.33;;;13.80;99.90;;;;;;5033889;28;20069;-63
2021/04/30 01:57:36;;;;;;;7.72;2.25;;;13.80;99.90;;;;;;5037839;28;20053;-63
2021/04/30 02:00:07;;;;;;;5.43;2.00;;;13.80;99.90;;;;;;5025529;28;20373;-63
2021/04/30 02:02:44;;;;;;;3.53;2.00;;;13.80;99.90;;;;;;5027090;28;20512;-63
2021/04/30 02:05:11;;;;;;;6.00;2.17;;;13.80;99.90;;;;;;5027867;28;20112;-63
2021/04/30 02:07:37;;;;;;;6.38;2.28;;;13.70;99.90;;;;;;5025177;28;20041;-63
2021/04/30 02:10:10;;;;;;;5.55;1.80;;;13.70;99.90;;;;;;5023447;28;20045;-63
2021/04/30 02:12:36;;;;;;;7.65;2.45;;;13.70;99.90;;;;;;5031294;28;20053;-63
2021/04/30 02:15:03;;;;;;;7.43;2.88;;;13.70;99.90;;;;;;5037333;28;20037;-63
2021/04/30 02:17:31;;;;;;;4.15;1.80;;;13.80;99.90;;;;;;5012257;28;20069;-63
2021/04/30 02:19:57;;;;;;;3.63;1.95;;;13.70;99.90;;;;;;5032938;28;20056;-63
2021/04/30 02:22:24;;;;;;;4.13;1.73;;;13.70;99.90;;;;;;5032731;28;20037;-63
2021/04/30 02:24:50;;;;;;;6.65;2.78;;;13.80;99.90;;;;;;5030363;28;20107;-63
2021/04/30 02:27:17;;;;;;;4.93;2.22;;;13.70;99.90;;;;;;5036000;28;20747;-63
2021/04/30 02:29:43;;;;;;;6.68;2.67;;;13.70;99.90;;;;;;5026479;28;20045;-63
2021/04/30 02:32:10;;;;;;;4.75;2.13;;;13.70;99.90;;;;;;5030424;28;20041;-63
2021/04/30 02:34:36;;;;;;;3.67;1.80;;;13.70;99.90;;;;;;5031215;28;20065;-63
2021/04/30 02:37:03;;;;;;;4.15;1.63;;;13.80;99.90;;;;;;5031253;28;20049;-63
2021/04/30 02:39:29;;;;;;;6.15;2.65;;;13.70;99.90;;;;;;5032076;28;20598;-63
2021/04/30 02:41:56;;;;;;;5.03;2.10;;;13.70;99.90;;;;;;5034710;28;20056;-63
2021/04/30 02:44:22;;;;;;;5.88;1.63;;;13.70;99.90;;;;;;5030443;28;20096;-63
2021/04/30 02:46:49;;;;;;;6.25;2.20;;;13.70;99.90;;;;;;5034415;28;20037;-63
2021/04/30 02:49:17;;;;;;;5.25;2.20;;;13.70;99.90;;;;;;5030799;28;20041;-63
2021/04/30 02:51:43;;;;;;;3.17;1.45;;;13.70;99.90;;;;;;5028731;28;20062;-63
2021/04/30 02:54:10;;;;;;;5.18;2.10;;;13.70;99.90;;;;;;5028961;28;20045;-63
2021/04/30 02:56:36;;;;;;;5.18;2.00;;;13.70;99.90;;;;;;5026977;28;20044;-63
2021/04/30 02:59:05;;;;;;;4.68;2.33;;;13.70;99.90;;;;;;5025259;28;20056;-63
2021/04/30 03:01:31;;;;;;;6.30;1.67;;;13.60;99.90;;;;;;5030608;28;20045;-63
2021/04/30 03:03:58;;;;;;;6.15;1.92;;;13.60;99.90;;;;;;5030690;28;20092;-63
2021/04/30 03:06:25;;;;;;;4.38;2.15;;;13.50;99.90;;;;;;5020610;28;20444;-63
2021/04/30 03:08:53;;;;;;;3.80;1.92;;;13.50;99.90;;;;;;5027815;28;20047;-63
2021/04/30 03:11:20;;;;;;;5.53;2.17;;;13.50;99.90;;;;;;5023943;28;20095;-63
2021/04/30 03:13:47;;;;;;;3.35;1.25;;;13.40;99.90;;;;;;5031151;28;20096;-63
2021/04/30 03:16:14;;;;;;;5.28;1.80;;;13.40;99.90;;;;;;5032156;28;20542;-63
2021/04/30 03:18:40;;;;;;;5.68;1.77;;;13.40;99.90;;;;;;5029097;28;20038;-63
2021/04/30 03:21:07;;;;;;;3.53;1.85;;;13.30;99.90;;;;;;5019641;28;20040;-63
2021/04/30 03:23:33;;;;;;;5.82;2.38;;;13.30;99.90;;;;;;5006030;28;20041;-63
2021/04/30 03:26:00;;;;;;;4.05;1.55;;;13.40;99.90;;;;;;5012603;28;20045;-63
2021/04/30 03:28:26;;;;;;;5.40;2.35;;;13.30;99.90;;;;;;5026649;28;20040;-63
2021/04/30 03:30:54;;;;;;;3.80;1.55;;;13.30;99.90;;;;;;5029316;28;20046;-63
2021/04/30 03:33:20;;;;;;;5.00;1.52;;;13.30;99.90;;;;;;5029260;28;20097;-63
2021/04/30 03:35:47;;;;;;;5.55;2.00;;;13.30;99.90;;;;;;5032002;28;20045;-63
2021/04/30 03:38:13;;;;;;;6.63;2.05;;;13.30;99.90;;;;;;5030497;28;20038;-63
2021/04/30 03:40:40;;;;;;;6.10;2.38;;;13.30;99.90;;;;;;5036158;28;20134;-63
2021/04/30 03:43:06;;;;;;;5.97;2.22;;;13.30;99.90;;;;;;5025044;28;20030;-63
2021/04/30 03:45:33;;;;;;;5.22;1.90;;;13.40;99.90;;;;;;5027767;28;20049;-63
2021/04/30 03:47:59;;;;;;;7.15;1.92;;;13.30;99.90;;;;;;5031632;28;20045;-63
2021/04/30 03:50:26;;;;;;;4.80;2.13;;;13.20;99.90;;;;;;5028951;28;20041;-63
2021/04/30 03:52:52;;;;;;;6.10;2.33;;;13.20;99.90;;;;;;5026614;28;20569;-63
2021/04/30 03:55:19;;;;;;;4.68;1.88;;;13.20;99.90;;;;;;5026748;28;20041;-63
2021/04/30 03:57:45;;;;;;;9.02;2.45;;;13.20;99.90;;;;;;5019154;28;20044;-63
2021/04/30 04:00:12;;;;;;;5.97;2.13;;;13.20;99.90;;;;;;5031348;28;20488;-63
2021/04/30 04:02:40;;;;;;;6.32;2.55;;;13.30;99.90;;;;;;5025653;28;20128;-63
2021/04/30 04:05:08;;;;;;;6.03;2.88;;;13.20;99.90;;;;;;5028888;28;20042;-63
2021/04/30 04:07:34;;;;;;;5.68;2.60;;;13.20;99.90;;;;;;5034991;28;20045;-63
2021/04/30 04:10:01;;;;;;;6.47;2.55;;;13.30;99.90;;;;;;5037407;28;20041;-63
2021/04/30 04:12:27;;;;;;;7.65;2.75;;;13.30;99.90;;;;;;5030912;28;20154;-63
2021/04/30 04:14:54;;;;;;;5.57;2.58;;;13.30;99.90;;;;;;5029005;28;20408;-63
2021/04/30 04:17:20;;;;;;;4.43;2.35;;;13.30;99.90;;;;;;5027417;28;20049;-63
2021/04/30 04:19:54;;;;;;;7.75;3.45;;;13.30;99.90;;;;;;4995201;28;20165;-63
2021/04/30 04:22:21;;;;;;;9.95;3.20;;;13.30;99.90;;;;;;5031017;28;20599;-63
2021/04/30 04:24:48;;;;;;;5.93;2.92;;;13.30;99.90;;;;;;5033224;28;20033;-63
2021/04/30 04:27:14;;;;;;;6.03;2.47;;;13.40;99.90;;;;;;5026464;28;20036;-63
2021/04/30 04:29:41;;;;;;;8.15;2.58;;;13.40;99.90;;;;;;5018244;28;20123;-63
2021/04/30 04:32:08;;;;;;;8.20;2.58;;;13.40;99.90;;;;;;5024850;28;20045;-63
2021/04/30 04:34:36;;;;;;;5.72;2.50;;;13.50;99.90;;;;;;5020729;28;20072;-63
2021/04/30 04:37:04;;;;;;;7.13;3.03;;;13.50;99.90;;;;;;5023662;28;20103;-63
2021/04/30 04:39:32;;;;;;;8.23;2.40;;;13.60;99.90;;;;;;5026579;28;20061;-63
2021/04/30 04:42:06;;;;;;;4.45;2.38;;;13.60;99.90;;;;;;5021726;28;20045;-63
2021/04/30 04:44:33;;;;;;;11.05;2.35;;;13.70;99.90;;;;;;5029712;28;20065;-63
2021/04/30 04:47:01;;;;;;;7.43;2.60;;;13.80;99.90;;;;;;5031010;28;20112;-63
2021/04/30 04:49:28;;;;;;;7.55;2.60;;;13.90;99.90;;;;;;5011705;28;20037;-63
2021/04/30 04:51:54;;;;;;;5.65;2.80;;;14.00;99.90;;;;;;5028279;28;20073;-63
2021/04/30 04:54:21;;;;;;;5.47;2.25;;;14.10;99.90;;;;;;5026012;28;20045;-62
2021/04/30 04:56:49;;;;;;;4.03;2.15;;;14.20;99.90;;;;;;5026787;28;20045;-62
2021/04/30 04:59:15;;;;;;;6.90;2.20;;;14.20;99.90;;;;;;5027194;28;20045;-62
2021/04/30 05:01:42;;;;;;;5.63;2.70;;;14.20;99.90;;;;;;5026592;28;20046;-62
2021/04/30 05:04:12;;;;;;;5.85;2.60;;;14.30;99.90;;;;;;5026456;28;20046;-63
2021/04/30 05:06:39;;;;;;;5.35;2.17;;;14.20;99.90;;;;;;5018268;28;20571;-63
2021/04/30 05:09:06;;;;;;;15.07;3.10;;;14.20;99.90;;;;;;5036984;28;20041;-63
2021/04/30 05:11:32;;;;;;;6.30;3.28;;;14.20;99.90;;;;;;5028030;28;20514;-63
2021/04/30 05:13:59;;;;;;;5.53;2.58;;;14.20;99.90;;;;;;5028428;28;20041;-63
2021/04/30 05:16:25;;;;;;;4.28;2.30;;;14.20;99.90;;;;;;5023773;28;20038;-63
2021/04/30 05:18:52;;;;;;;6.65;3.20;;;14.20;99.90;;;;;;5030912;28;20496;-63
2021/04/30 05:21:19;;;;;;;4.72;2.20;;;14.20;99.90;;;;;;5040798;28;20586;-63
2021/04/30 05:23:46;;;;;;;6.72;2.35;;;14.20;99.90;;;;;;5030143;28;20065;-63
2021/04/30 05:26:12;;;;;;;6.53;2.42;;;14.20;99.90;;;;;;5027441;28;20452;-63
2021/04/30 05:28:40;;;;;;;4.70;2.65;;;14.10;99.90;;;;;;5018364;28;20038;-62
2021/04/30 05:31:06;;;;;;;5.15;2.17;;;14.20;99.90;;;;;;5033006;28;20086;-63
2021/04/30 05:33:33;;;;;;;6.65;2.13;;;14.20;99.90;;;;;;5040946;28;20042;-63
2021/04/30 05:36:00;;;;;;;5.55;2.58;;;14.20;99.90;;;;;;5031964;28;22823;-63
2021/04/30 05:38:26;;;;;;;6.95;2.40;;;14.20;99.90;;;;;;5037319;28;20053;-63
2021/04/30 05:40:53;;;;;;;6.55;2.78;;;14.20;99.90;;;;;;5045689;28;20534;-63
2021/04/30 05:43:19;;;;;;;8.18;2.75;;;14.30;99.90;;;;;;5028723;28;20049;-63
2021/04/30 05:45:46;;;;;;;6.13;2.47;;;14.20;99.90;;;;;;5034721;28;20525;-63
2021/04/30 05:48:12;;;;;;;4.88;2.13;;;14.20;99.90;;;;;;5032225;28;20038;-63
2021/04/30 05:50:39;;;;;;;5.03;2.25;;;14.30;99.90;;;;;;5019318;28;20093;-64
2021/04/30 05:53:06;;;;;;;4.65;1.90;;;14.30;99.90;;;;;;5028357;28;20467;-63
2021/04/30 05:55:32;;;;;;;5.95;3.78;;;14.40;99.90;;;;;;5046915;28;20041;-63
2021/04/30 05:57:59;;;;;;;6.60;3.35;;;14.50;99.90;;;;;;5031053;28;20049;-63
2021/04/30 06:00:25;;;;;;;10.13;4.35;;;14.50;99.90;;;;;;5029087;28;20092;-63
2021/04/30 06:02:52;;;;;;;7.50;3.30;;;14.60;99.90;;;;;;5025705;28;20488;-63
2021/04/30 06:05:18;;;;;;;8.27;3.20;;;14.80;99.90;;;;;;5044284;28;20068;-61
2021/04/30 06:07:45;;;;;;;6.47;2.45;;;14.80;99.90;;;;;;5035713;28;20048;-61
2021/04/30 06:10:12;;;;;;;5.28;2.40;;;14.90;99.90;;;;;;5030577;28;20037;-61
2021/04/30 06:12:39;;;;;;;5.60;3.03;;;15.00;99.90;;;;;;5028911;28;20056;-61
2021/04/30 06:15:05;;;;;;;5.22;2.80;;;15.10;99.90;;;;;;5019487;28;20041;-61
2021/04/30 06:17:32;;;;;;;7.60;2.58;;;15.20;99.90;;;;;;5030234;28;20053;-61
2021/04/30 06:19:59;;;;;;;5.35;2.63;;;15.20;99.90;;;;;;5027273;28;20419;-62
2021/04/30 06:22:25;;;;;;;8.77;2.33;;;15.20;99.90;;;;;;5029699;28;20045;-62
2021/04/30 06:24:52;;;;;;;6.35;2.65;;;15.30;99.90;;;;;;5032971;28;20503;-61
2021/04/30 06:27:18;;;;;;;8.25;2.65;;;15.30;99.90;;;;;;5030969;28;20037;-62
2021/04/30 06:29:45;;;;;;;7.15;2.97;;;15.30;99.90;;;;;;5026216;28;20038;-62
2021/04/30 06:32:11;;;;;;;4.93;2.75;;;15.30;99.90;;;;;;5030653;28;20463;-62
2021/04/30 06:34:38;;;;;;;5.20;2.28;;;15.30;99.90;;;;;;5032914;28;20041;-62
2021/04/30 06:37:05;;;;;;;6.05;2.70;;;15.30;99.90;;;;;;5029832;28;20488;-61
2021/04/30 06:39:31;;;;;;;8.13;2.70;;;15.30;99.90;;;;;;5029909;28;20593;-61
2021/04/30 06:42:02;;;;;;;4.35;2.50;;;15.30;99.90;;;;;;5031284;28;20046;-61
2021/04/30 06:44:31;;;;;;;4.10;2.42;;;15.30;99.90;;;;;;5032251;28;20038;-61
2021/04/30 06:46:58;;;;;;;5.13;2.67;;;15.50;99.90;;;;;;5031023;28;20119;-61
2021/04/30 06:49:25;;;;;;;7.22;2.90;;;15.50;99.90;;;;;;5026133;28;20141;-61
2021/04/30 06:51:52;;;;;;;7.07;3.08;;;15.60;99.90;;;;;;5031426;28;20480;-61
2021/04/30 06:54:19;;;;;;;7.15;3.17;;;15.70;99.90;;;;;;5031398;28;20049;-61
2021/04/30 06:56:46;;;;;;;10.85;3.88;;;15.70;99.90;;;;;;5031758;28;20041;-61
2021/04/30 06:59:13;;;;;;;6.93;3.80;;;15.80;99.90;;;;;;5039065;28;20041;-61
2021/04/30 07:01:40;;;;;;;10.15;4.07;;;15.90;99.90;;;;;;5034766;28;20088;-61
2021/04/30 07:04:07;;;;;;;11.63;4.07;;;16.00;99.90;;;;;;5011815;28;20903;-61
2021/04/30 07:06:34;;;;;;;9.57;4.38;;;16.10;99.90;;;;;;5021638;28;20111;-61
2021/04/30 07:09:02;;;;;;;9.20;4.32;;;16.10;99.90;;;;;;5021264;28;20573;-61
2021/04/30 07:11:28;;;;;;;14.35;6.15;;;16.10;99.90;;;;;;5028301;28;20065;-61
2021/04/30 07:13:56;;;;;;;14.95;5.85;;;16.30;99.90;;;;;;5025096;28;20726;-61
2021/04/30 07:16:25;;;;;;;13.75;5.95;;;16.30;99.90;;;;;;5028497;28;20045;-61
2021/04/30 07:18:51;;;;;;;13.60;5.57;;;16.40;99.90;;;;;;5022543;28;20820;-61
2021/04/30 07:21:18;;;;;;;11.68;5.45;;;16.40;99.90;;;;;;5024426;28;20780;-61
2021/04/30 07:23:44;;;;;;;11.52;5.50;;;16.50;99.90;;;;;;5009362;28;20038;-61
2021/04/30 07:26:11;;;;;;;11.43;5.30;;;16.50;99.90;;;;;;5027417;28;20045;-61
2021/04/30 07:28:37;;;;;;;12.02;6.10;;;16.50;99.90;;;;;;5024383;28;20041;-61
2021/04/30 07:31:04;;;;;;;13.55;6.43;;;16.60;99.90;;;;;;5023920;28;20041;-61
2021/04/30 07:33:31;;;;;;;14.23;6.22;;;16.70;99.90;;;;;;5023916;28;20053;-61
2021/04/30 07:36:03;;;;;;;18.13;8.60;;;16.70;99.90;;;;;;5027347;28;20044;-62
2021/04/30 07:38:30;;;;;;;15.65;7.93;;;16.80;99.90;;;;;;5018813;28;20049;-62
2021/04/30 07:40:57;;;;;;;18.35;7.70;;;16.90;99.90;;;;;;5022394;28;20124;-61
2021/04/30 07:43:24;;;;;;;16.25;7.93;;;17.00;99.90;;;;;;5023103;28;20052;-61
2021/04/30 07:45:51;;;;;;;17.58;7.75;;;17.10;99.90;;;;;;5025659;28;20772;-61
2021/04/30 07:48:18;;;;;;;18.70;8.20;;;17.20;99.90;;;;;;5027564;28;20037;-61
2021/04/30 07:50:44;;;;;;;16.20;7.78;;;17.20;99.90;;;;;;5027627;28;20092;-62
2021/04/30 07:53:11;;;;;;;19.15;8.93;;;17.30;99.90;;;;;;5024317;28;20045;-62
2021/04/30 07:55:37;;;;;;;17.52;9.43;;;17.40;99.90;;;;;;5030723;28;20159;-62
2021/04/30 07:58:04;;;;;;;19.02;8.32;;;17.50;99.90;;;;;;5026748;28;20143;-62
2021/04/30 08:00:31;;;;;;;20.85;9.20;;;17.50;99.90;;;;;;5027054;28;20468;-61
2021/04/30 08:02:57;;;;;;;17.38;9.73;;;17.40;99.90;;;;;;5026490;28;20052;-61
2021/04/30 08:05:26;;;;;;;20.58;9.80;;;17.30;99.90;;;;;;5026804;28;20037;-61
2021/04/30 08:07:52;;;;;;;21.90;9.15;;;17.30;99.90;;;;;;5024340;28;20064;-61
2021/04/30 08:10:19;;;;;;;19.65;9.15;;;17.40;99.90;;;;;;5024618;28;20092;-61
2021/04/30 08:12:47;;;;;;;18.42;9.32;;;17.40;99.90;;;;;;5028538;28;20052;-62
2021/04/30 08:15:15;;;;;;;17.33;8.43;;;17.50;99.90;;;;;;5015895;28;20759;-62
2021/04/30 08:17:42;;;;;;;19.35;8.57;;;17.50;99.90;;;;;;5028402;28;20871;-61
2021/04/30 08:20:09;;;;;;;18.40;8.80;;;17.60;99.90;;;;;;5027475;28;20447;-61
2021/04/30 08:22:36;;;;;;;17.73;8.43;;;17.60;99.90;;;;;;5015587;28;20059;-62
2021/04/30 08:25:04;;;;;;;16.67;8.27;;;17.70;99.90;;;;;;5024088;28;20445;-63
2021/04/30 08:27:31;;;;;;;17.70;8.45;;;17.60;99.90;;;;;;5028465;28;20045;-63
2021/04/30 08:29:57;;;;;;;14.90;8.20;;;17.60;99.90;;;;;;5007718;28;20065;-62
2021/04/30 08:32:24;;;;;;;16.25;7.90;;;17.60;99.90;;;;;;5025197;28;20060;-62
2021/04/30 08:34:51;;;;;;;18.70;8.57;;;17.60;99.90;;;;;;5019658;28;20045;-62
2021/04/30 08:37:17;;;;;;;22.27;8.88;;;17.70;99.90;;;;;;5024639;28;20050;-62
2021/04/30 08:39:44;;;;;;;20.52;8.93;;;17.70;99.90;;;;;;5026779;28;20653;-63
2021/04/30 08:42:10;;;;;;;24.10;10.70;;;17.70;99.90;;;;;;5027956;28;20049;-62
2021/04/30 08:44:38;;;;;;;23.20;9.95;;;17.80;99.90;;;;;;5025985;28;20041;-61
2021/04/30 08:47:06;;;;;;;18.73;9.00;;;17.90;99.90;;;;;;5023080;28;20376;-61
2021/04/30 08:49:34;;;;;;;20.83;9.45;;;18.00;99.90;;;;;;5033370;28;20053;-61
2021/04/30 08:52:02;;;;;;;19.55;9.50;;;18.00;99.60;;;;;;5029110;28;20427;-61
2021/04/30 08:54:29;;;;;;;18.20;8.60;;;18.10;99.90;;;;;;5028464;28;20045;-61
2021/04/30 08:57:03;;;;;;;15.20;8.27;;;18.10;99.90;;;;;;5029643;28;20041;-61
2021/04/30 08:59:31;;;;;;;14.63;7.10;;;18.20;99.90;;;;;;5028970;28;20052;-61
2021/04/30 09:02:00;;;;;;;13.75;7.57;;;18.20;99.90;;;;;;5027961;28;20069;-61
2021/04/30 09:04:29;;;;;;;17.17;7.38;;;18.20;98.80;;;;;;5015238;28;20115;-62
2021/04/30 09:07:11;;;;;;;22.98;10.65;;;18.20;99.60;;;;;;5022622;28;20048;-61
2021/04/30 09:09:55;;;;;;;16.70;8.68;;;18.20;98.20;;;;;;5027331;28;20041;-61
2021/04/30 09:12:23;;;;;;;17.40;8.30;;;18.30;99.90;;;;;;5024684;28;20124;-61
2021/04/30 09:14:50;;;;;;;17.40;7.80;;;18.50;99.90;;;;;;5021593;28;20041;-61
2021/04/30 09:17:18;;;;;;;14.75;7.78;;;18.60;99.00;;;;;;5014886;28;20136;-61
2021/04/30 09:19:51;;;;;;;16.00;7.88;;;18.70;97.90;;;;;;5029255;28;20049;-61
2021/04/30 09:22:21;;;;;;;16.27;7.28;;;18.70;98.50;;;;;;5024803;28;20534;-62
2021/04/30 09:24:56;;;;;;;17.35;7.57;;;18.80;98.10;;;;;;5023070;28;20049;-61
2021/04/30 09:27:32;;;;;;;15.43;6.57;;;18.90;97.20;;;;;;5028933;28;20049;-62
2021/04/30 09:30:28;;;;;;;12.40;6.40;;;18.90;96.50;;;;;;5028163;28;20045;-61
2021/04/30 09:33:21;;;;;;;11.73;5.93;;;18.90;97.10;;;;;;5031021;28;20056;-61
2021/04/30 09:35:56;;;;;;;13.70;6.80;;;18.80;95.80;;;;;;5039860;28;20500;-61
2021/04/30 09:38:27;;;;;;;15.05;6.57;;;18.80;95.40;;;;;;5026398;28;20108;-63
2021/04/30 09:41:00;;;;;;;17.15;6.80;;;18.90;97.20;;;;;;5027032;28;20045;-63
2021/04/30 09:43:49;;;;;;;19.63;7.75;;;18.90;96.30;;;;;;5023464;28;20058;-63
2021/04/30 09:46:22;;;;;;;13.52;6.80;;;18.90;96.90;;;;;;5012874;28;20061;-63
2021/04/30 09:49:16;;;;;;;15.73;7.03;;;18.90;96.90;;;;;;5036034;28;20039;-63
2021/04/30 09:51:47;;;;;;;16.08;7.97;;;19.00;97.90;;;;;;5022689;28;20037;-63
2021/04/30 09:54:29;;;;;;;15.93;7.13;;;19.10;97.20;;;;;;5029537;28;20048;-63
2021/04/30 09:57:07;;;;;;;17.65;7.93;;;19.10;96.10;;;;;;5013528;28;20138;-63
2021/04/30 09:59:36;;;;;;;18.30;7.88;;;19.10;94.80;;;;;;5024504;28;20085;-63
2021/04/30 10:02:09;;;;;;;14.60;6.75;;;19.10;94.70;;;;;;5018829;28;20041;-63
2021/04/30 10:04:37;;;;;;;13.75;6.55;;;19.30;95.50;;;;;;5026885;28;20156;-63
2021/04/30 10:07:10;;;;;;;16.00;7.22;;;19.40;95.40;;;;;;5026002;28;20134;-63
2021/04/30 10:09:39;;;;;;;12.80;5.70;;;19.50;94.30;;;;;;5026140;28;20041;-63
2021/04/30 10:12:23;;;;;;;11.77;6.53;;;19.60;94.00;;;;;;5024581;28;20053;-64
2021/04/30 10:14:50;;;;;;;13.93;6.63;;;19.70;93.20;;;;;;5028745;28;20041;-63
2021/04/30 10:17:17;;;;;;;12.68;6.22;;;19.60;90.90;;;;;;5003158;28;20045;-63
2021/04/30 10:19:46;;;;;;;16.67;7.00;;;19.60;90.50;;;;;;5031725;28;20048;-63
2021/04/30 10:22:19;;;;;;;15.30;7.07;;;19.50;92.60;;;;;;5028460;28;20060;-63
2021/04/30 10:24:55;;;;;;;14.18;6.03;;;19.60;93.50;;;;;;5016304;28;20057;-63
2021/04/30 10:27:55;;;;;;;13.23;6.28;;;19.70;91.60;;;;;;5028241;28;20101;-62
2021/04/30 10:30:36;;;;;;;13.80;6.35;;;19.80;89.20;;;;;;5026944;28;20061;-63
2021/04/30 10:33:15;;;;;;;12.93;6.53;;;19.90;92.00;;;;;;5021888;28;20052;-63
2021/04/30 10:36:15;;;;;;;11.68;5.43;;;20.10;90.70;;;;;;5018757;28;20046;-63
2021/04/30 10:38:50;;;;;;;14.65;5.93;;;20.20;90.70;;;;;;5017041;28;20467;-63
2021/04/30 10:41:38;;;;;;;13.60;5.70;;;20.30;88.90;;;;;;5022731;28;20052;-63
2021/04/30 10:44:28;;;;;;;15.90;6.80;;;20.40;89.60;;;;;;5027316;28;20049;-63
2021/04/30 10:47:15;;;;;;;15.77;7.15;;;20.30;85.40;;;;;;5015437;28;20103;-63
2021/04/30 10:49:44;;;;;;;12.40;6.30;;;20.40;86.50;;;;;;5028255;28;20103;-63
2021/04/30 10:52:16;;;;;;;14.10;5.82;;;20.50;90.20;;;;;;5024687;28;20052;-64
2021/04/30 10:55:00;;;;;;;10.65;5.10;;;20.60;87.80;;;;;;5024204;28;20515;-63
2021/04/30 10:57:27;;;;;;;10.43;5.55;;;20.60;81.20;;;;;;5010633;28;20091;-63
2021/04/30 10:59:54;;;;;;;13.57;5.90;;;20.60;86.00;;;;;;5023045;28;20472;-63
2021/04/30 11:02:28;;;;;;;14.98;6.72;;;20.80;81.10;;;;;;5029488;28;20048;-63
2021/04/30 11:05:16;;;;;;;10.27;5.40;;;20.80;77.90;;;;;;5022650;28;20464;-63
2021/04/30 11:07:47;;;;;;;12.88;5.55;;;20.70;79.20;;;;;;5027365;28;20404;-63
2021/04/30 11:10:23;;;;;;;13.43;5.03;;;20.70;79.00;;;;;;5033301;28;20091;-64
2021/04/30 11:13:09;;;;;;;12.82;5.45;;;20.80;81.00;;;;;;5033795;28;20591;-64
2021/04/30 11:15:45;;;;;;;12.57;5.55;;;20.80;75.70;;;;;;5024950;28;20334;-63
2021/04/30 11:18:12;;;;;;;13.77;6.85;;;20.90;79.10;;;;;;5028034;28;20046;-64
2021/04/30 11:20:42;;;;;;;10.55;4.30;;;21.00;74.00;;;;;;5032228;28;20480;-63
2021/04/30 11:23:26;;;;;;;10.82;5.40;;;21.10;78.10;;;;;;5022899;28;20496;-64
2021/04/30 11:25:58;;;;;;;11.25;5.70;;;21.30;77.40;;;;;;5023290;28;20127;-64
2021/04/30 11:28:31;;;;;;;10.90;5.70;;;21.30;71.70;;;;;;5026198;28;20412;-63
2021/04/30 11:31:04;;;;;;;11.95;6.13;;;21.20;72.90;;;;;;5026301;28;20136;-64
2021/04/30 11:33:33;;;;;;;14.20;6.15;;;21.20;73.40;;;;;;5024139;28;20041;-63
2021/04/30 11:36:01;;;;;;;10.57;5.00;;;21.20;73.80;;;;;;5028026;28;20052;-63
2021/04/30 11:38:49;;;;;;;12.55;5.00;;;21.10;72.00;;;;;;5021504;28;20042;-63
2021/04/30 11:41:16;;;;;;;8.45;5.00;;;21.00;70.50;;;;;;5024747;28;20044;-63
2021/04/30 11:43:51;;;;;;;9.85;3.63;;;21.10;72.30;;;;;;5018469;28;20037;-63
2021/04/30 11:46:18;;;;;;;8.70;3.95;;;21.20;70.70;;;;;;5028806;28;20049;-64
2021/04/30 11:48:46;;;;;;;8.50;4.30;;;21.40;69.20;;;;;;5022456;28;20751;-63
2021/04/30 11:51:13;;;;;;;7.03;3.25;;;21.50;68.10;;;;;;5032157;28;20087;-63
2021/04/30 11:53:43;;;;;;;6.75;2.88;;;21.70;67.70;;;;;;5029583;28;20049;-63
2021/04/30 11:56:11;;;;;;;11.45;2.90;;;21.80;66.40;;;;;;5021355;28;20105;-63
2021/04/30 11:58:39;;;;;;;7.50;2.97;;;21.80;66.90;;;;;;5019129;28;20413;-63
2021/04/30 12:01:07;;;;;;;6.85;3.35;;;21.80;66.30;;;;;;5012249;28;20057;-63
2021/04/30 12:03:49;;;;;;;5.93;2.80;;;21.70;66.50;;;;;;5024026;28;20049;-63
2021/04/30 12:06:21;;;;;;;5.60;2.27;;;21.90;65.40;;;;;;5025383;28;20055;-63
2021/04/30 12:08:54;;;;;;;4.22;1.85;;;22.20;64.90;;;;;;5025210;28;20845;-63
2021/04/30 12:11:28;;;;;;;4.13;2.05;;;22.50;64.40;;;;;;5024876;28;20046;-63
2021/04/30 12:13:57;;;;;;;4.03;1.80;;;22.60;62.50;;;;;;5036654;28;20049;-63
2021/04/30 12:16:27;;;;;;;3.30;1.77;;;22.80;62.00;;;;;;5037084;28;20053;-63
2021/04/30 12:18:55;;;;;;;2.85;1.50;;;22.80;60.40;;;;;;5023911;28;20045;-63
2021/04/30 12:21:30;;;;;;;4.78;1.80;;;22.90;61.60;;;;;;5024431;28;20053;-63
2021/04/30 12:23:58;;;;;;;5.07;1.85;;;23.10;61.80;;;;;;5026414;28;20503;-63
2021/04/30 12:26:29;;;;;;;59.30;6.68;;;23.10;59.70;;;;;;5025217;28;20040;-63
2021/04/30 12:28:57;;;;;;;4.32;2.20;;;23.20;60.80;;;;;;5024502;28;20037;-63
2021/04/30 12:31:25;;;;;;;5.00;1.85;;;23.30;61.40;;;;;;5025863;28;20042;-63
2021/04/30 12:33:54;;;;;;;6.60;2.00;;;23.40;59.30;;;;;;5022684;28;20112;-63
2021/04/30 12:36:32;;;;;;;5.15;1.50;;;23.40;59.90;;;;;;5022535;28;20587;-63
2021/04/30 12:39:11;;;;;;;4.88;1.40;;;23.50;59.00;;;;;;5039315;28;20057;-63
2021/04/30 12:41:40;;;;;;;5.22;2.20;;;23.50;58.70;;;;;;5025588;28;20045;-63
2021/04/30 12:44:09;;;;;;;4.97;1.60;;;23.40;57.90;;;;;;5027367;28;20059;-63
2021/04/30 12:46:39;;;;;;;3.15;1.70;;;23.40;59.10;;;;;;5024500;28;20056;-63
2021/04/30 12:49:14;;;;;;;4.63;1.65;;;23.60;58.70;;;;;;5027575;28;20057;-63
2021/04/30 12:51:52;;;;;;;4.22;1.30;;;23.70;57.60;;;;;;5025486;28;20049;-63
2021/04/30 12:54:26;;;;;;;2.03;1.00;;;23.80;56.20;;;;;;5025973;28;20049;-63